Time;durP1;ratioP1;P1;durP2;ratioP2;P2;SDS_P1;SDS_P2;PMS_P1;PMS_P2;Temp;Humidity;BMP_temperature;BMP_pressure;BME280_temperature;BME280_humidity;BME280_pressure;Samples;Min_cycle;Max_cycle;Signal;HPM_P1;HPM_P2
2023/10/30 00:00:47;;;;;;;5.40;3.67;;;;;;;13.01;72.44;99311.06;5053881;28;20221;-61
2023/10/30 00:03:15;;;;;;;5.47;3.43;;;;;;;13.02;72.26;99294.63;5055483;28;20204;-61
2023/10/30 00:05:46;;;;;;;4.80;3.63;;;;;;;13.10;72.62;99298.72;5051983;28;20206;-62
2023/10/30 00:08:14;;;;;;;5.63;3.27;;;;;;;13.13;72.34;99299.44;5050460;28;20205;-60
2023/10/30 00:10:42;;;;;;;7.00;3.23;;;;;;;13.17;71.77;99308.78;5049205;28;20301;-61
2023/10/30 00:13:11;;;;;;;4.87;3.67;;;;;;;13.18;71.62;99301.88;5049577;28;20238;-62
2023/10/30 00:15:39;;;;;;;6.30;3.30;;;;;;;13.22;71.44;99299.16;5051287;28;20300;-60
2023/10/30 00:18:07;;;;;;;8.20;3.10;;;;;;;13.22;71.55;99301.75;5053820;28;20233;-63
2023/10/30 00:20:37;;;;;;;6.43;3.63;;;;;;;13.24;71.41;99305.13;5054611;28;20236;-62
2023/10/30 00:23:05;;;;;;;5.37;3.30;;;;;;;13.24;71.37;99306.88;5057718;28;20636;-61
2023/10/30 00:25:33;;;;;;;4.67;3.17;;;;;;;13.24;71.08;99306.88;5053410;28;20633;-61
2023/10/30 00:28:02;;;;;;;7.57;4.03;;;;;;;13.21;70.99;99323.31;5047498;28;20310;-61
2023/10/30 00:30:31;;;;;;;5.10;3.70;;;;;;;13.16;70.92;99327.81;5054096;28;20234;-61
2023/10/30 00:32:59;;;;;;;9.43;3.57;;;;;;;13.11;71.29;99324.53;5053794;28;20730;-63
2023/10/30 00:35:27;;;;;;;9.10;3.60;;;;;;;13.02;72.05;99330.00;5053725;28;20209;-60
2023/10/30 00:37:55;;;;;;;4.47;3.33;;;;;;;13.00;72.17;99344.75;5062018;28;20210;-61
2023/10/30 00:40:24;;;;;;;5.87;3.50;;;;;;;12.96;72.46;99368.97;5052596;28;20202;-62
2023/10/30 00:42:52;;;;;;;6.50;3.57;;;;;;;12.95;72.40;99378.47;5054301;28;20209;-62
2023/10/30 00:45:20;;;;;;;6.90;3.33;;;;;;;12.91;72.46;99373.47;5048905;28;20207;-61
2023/10/30 00:47:49;;;;;;;5.60;3.90;;;;;;;12.89;72.47;99365.78;5048440;28;20290;-60
2023/10/30 00:50:20;;;;;;;5.73;3.30;;;;;;;12.88;72.84;99360.63;5052799;28;20204;-62
2023/10/30 00:52:48;;;;;;;6.63;3.90;;;;;;;12.87;72.59;99372.72;5051732;28;20653;-65
2023/10/30 00:55:18;;;;;;;7.80;4.23;;;;;;;12.85;72.30;99361.59;5043099;28;20213;-64
2023/10/30 00:57:46;;;;;;;5.77;3.73;;;;;;;12.85;72.81;99359.00;5058341;28;20573;-68
2023/10/30 01:00:15;;;;;;;5.87;3.40;;;;;;;12.87;73.15;99348.59;5053599;28;20664;-62
2023/10/30 01:02:44;;;;;;;7.67;3.80;;;;;;;12.87;72.91;99351.19;5061122;28;20275;-60
2023/10/30 01:05:14;;;;;;;6.00;3.73;;;;;;;12.86;72.94;99365.88;5043543;28;20282;-61
2023/10/30 01:07:43;;;;;;;5.30;3.40;;;;;;;12.84;72.83;99357.31;5048347;28;20198;-61
2023/10/30 01:10:11;;;;;;;8.27;4.27;;;;;;;12.81;72.77;99357.38;5050097;28;20202;-62
2023/10/30 01:12:39;;;;;;;7.80;3.93;;;;;;;12.80;73.12;99347.94;5052670;28;20206;-62
2023/10/30 01:15:08;;;;;;;5.70;3.80;;;;;;;12.80;72.97;99340.19;5046119;28;20579;-60
2023/10/30 01:17:37;;;;;;;5.70;3.77;;;;;;;12.75;73.05;99330.00;5050387;28;20759;-65
2023/10/30 01:20:06;;;;;;;6.37;3.93;;;;;;;12.76;73.40;99336.03;5049302;28;20222;-63
2023/10/30 01:22:35;;;;;;;6.97;3.87;;;;;;;12.76;73.16;99323.09;5039491;28;20206;-68
2023/10/30 01:25:03;;;;;;;6.60;4.00;;;;;;;12.77;72.95;99325.63;5051258;28;20645;-62
2023/10/30 01:27:31;;;;;;;6.87;3.63;;;;;;;12.77;72.99;99323.03;5048918;28;20198;-63
2023/10/30 01:29:59;;;;;;;5.10;3.60;;;;;;;12.77;73.02;99322.19;5051730;28;20233;-63
2023/10/30 01:32:27;;;;;;;6.80;3.97;;;;;;;12.76;72.94;99320.50;5052393;28;20225;-63
2023/10/30 01:34:55;;;;;;;4.60;3.20;;;;;;;12.76;73.01;99323.94;5046677;28;20218;-63
2023/10/30 01:37:23;;;;;;;7.00;3.83;;;;;;;12.76;73.36;99325.69;5049938;28;20217;-63
2023/10/30 01:39:54;;;;;;;10.07;4.13;;;;;;;12.73;72.83;99315.44;5046614;28;20724;-63
2023/10/30 01:42:22;;;;;;;6.27;3.87;;;;;;;12.72;73.24;99324.09;5050138;28;20270;-62
2023/10/30 01:44:54;;;;;;;6.27;3.97;;;;;;;12.70;73.69;99312.94;5046530;28;20680;-61
2023/10/30 01:47:22;;;;;;;6.43;3.57;;;;;;;12.72;73.14;99306.84;5049160;28;20557;-64
2023/10/30 01:49:51;;;;;;;5.27;3.60;;;;;;;12.74;73.67;99299.03;5049926;28;20213;-64
2023/10/30 01:52:21;;;;;;;6.33;3.50;;;;;;;12.76;73.17;99292.06;5045717;28;20257;-62
2023/10/30 01:54:50;;;;;;;5.07;3.50;;;;;;;12.74;73.21;99288.69;5051620;28;20218;-62
2023/10/30 01:57:21;;;;;;;6.27;4.00;;;;;;;12.73;72.70;99287.84;5047716;28;20233;-64
2023/10/30 01:59:51;;;;;;;8.37;3.50;;;;;;;12.72;72.66;99295.66;5049788;28;20259;-63
2023/10/30 02:02:19;;;;;;;5.47;3.63;;;;;;;12.72;73.16;99303.41;5047373;28;20205;-63
2023/10/30 02:04:48;;;;;;;6.60;3.73;;;;;;;12.68;73.27;99307.00;5053681;28;20624;-63
2023/10/30 02:07:17;;;;;;;5.93;3.33;;;;;;;12.62;72.64;99305.44;5055683;28;20213;-61
2023/10/30 02:09:48;;;;;;;6.27;4.03;;;;;;;12.55;72.98;99302.19;5046516;28;20279;-61
2023/10/30 02:12:17;;;;;;;7.27;3.80;;;;;;;12.49;73.78;99312.75;5047775;28;20279;-61
2023/10/30 02:14:46;;;;;;;6.23;3.37;;;;;;;12.43;73.72;99314.66;5053910;28;20234;-62
2023/10/30 02:17:14;;;;;;;6.53;3.70;;;;;;;12.39;73.67;99311.31;5050394;28;20597;-60
2023/10/30 02:19:42;;;;;;;6.80;4.20;;;;;;;12.34;74.43;99310.63;5048999;28;20214;-67
2023/10/30 02:22:10;;;;;;;7.47;3.93;;;;;;;12.32;74.31;99325.31;5050384;28;20727;-62
2023/10/30 02:24:38;;;;;;;6.93;4.10;;;;;;;12.31;74.60;99321.91;5049859;28;20237;-60
2023/10/30 02:27:08;;;;;;;9.20;3.27;;;;;;;12.29;74.65;99326.25;5047926;28;20210;-61
2023/10/30 02:29:36;;;;;;;7.00;3.90;;;;;;;12.27;74.90;99345.28;5045803;28;20292;-61
2023/10/30 02:32:04;;;;;;;7.43;4.07;;;;;;;12.28;75.08;99347.81;5042440;28;20826;-61
2023/10/30 02:34:32;;;;;;;6.30;3.80;;;;;;;12.27;74.80;99346.13;5051586;28;20217;-62
2023/10/30 02:37:01;;;;;;;7.40;4.17;;;;;;;12.26;74.92;99333.25;5048040;28;20202;-63
2023/10/30 02:39:32;;;;;;;8.10;3.83;;;;;;;12.26;74.96;99328.06;5044231;28;20237;-62
2023/10/30 02:42:01;;;;;;;4.77;3.50;;;;;;;12.25;75.04;99341.91;5049571;28;20198;-62
2023/10/30 02:44:30;;;;;;;7.13;3.67;;;;;;;12.22;74.86;99336.81;5051319;28;20194;-67
2023/10/30 02:46:58;;;;;;;3.83;3.03;;;;;;;12.19;75.22;99336.94;5054122;28;20210;-65
2023/10/30 02:49:27;;;;;;;5.43;3.57;;;;;;;12.14;75.74;99323.28;5051128;28;20252;-66
2023/10/30 02:51:55;;;;;;;5.07;3.57;;;;;;;12.12;75.84;99315.59;5058013;28;20561;-62
2023/10/30 02:54:23;;;;;;;5.23;3.37;;;;;;;12.11;75.44;99305.28;5053939;28;20241;-62
2023/10/30 02:56:51;;;;;;;7.10;3.63;;;;;;;12.08;76.07;99301.94;5056309;28;20260;-62
2023/10/30 02:59:19;;;;;;;4.97;3.57;;;;;;;12.07;76.18;99307.97;5053602;28;20206;-63
2023/10/30 03:01:48;;;;;;;6.10;3.53;;;;;;;12.04;75.98;99310.66;5052273;28;20244;-68
2023/10/30 03:04:17;;;;;;;5.57;3.57;;;;;;;12.03;76.50;99311.53;5050962;28;20289;-64
2023/10/30 03:06:45;;;;;;;4.07;3.37;;;;;;;12.01;76.11;99313.34;5049776;28;20300;-63
2023/10/30 03:09:13;;;;;;;6.97;3.90;;;;;;;12.01;76.38;99313.34;5054023;28;20208;-63
2023/10/30 03:11:41;;;;;;;4.40;3.40;;;;;;;11.96;76.23;99304.00;5053064;28;20212;-65
2023/10/30 03:14:09;;;;;;;5.20;3.53;;;;;;;11.98;76.74;99300.50;5052558;28;20301;-63
2023/10/30 03:16:37;;;;;;;5.17;3.60;;;;;;;11.99;76.74;99304.78;5052043;28;20233;-62
2023/10/30 03:19:07;;;;;;;6.37;3.43;;;;;;;12.02;76.32;99304.69;5049056;28;20576;-63
2023/10/30 03:21:35;;;;;;;7.53;3.73;;;;;;;12.03;76.24;99296.03;5052596;28;20213;-63
2023/10/30 03:24:03;;;;;;;5.17;3.40;;;;;;;12.03;76.31;99285.72;5052230;28;20198;-62
2023/10/30 03:26:31;;;;;;;5.10;3.60;;;;;;;12.03;76.55;99290.88;5051968;28;20194;-61
2023/10/30 03:28:59;;;;;;;6.03;3.53;;;;;;;12.04;76.50;99289.13;5052545;28;20212;-63
2023/10/30 03:31:27;;;;;;;5.00;3.97;;;;;;;12.05;76.09;99281.34;5051720;28;20624;-63
2023/10/30 03:33:55;;;;;;;7.33;3.77;;;;;;;12.04;76.79;99287.44;5052695;28;20229;-59
2023/10/30 03:36:26;;;;;;;5.57;3.60;;;;;;;12.04;76.81;99286.56;5052476;28;20708;-62
2023/10/30 03:38:54;;;;;;;7.13;3.40;;;;;;;12.05;76.32;99293.44;5046269;28;20198;-61
2023/10/30 03:41:22;;;;;;;6.77;3.53;;;;;;;12.04;76.12;99296.88;5051002;28;20209;-61
2023/10/30 03:43:50;;;;;;;5.70;3.57;;;;;;;12.00;76.36;99291.00;5061176;28;20209;-62
2023/10/30 03:46:18;;;;;;;7.03;3.73;;;;;;;11.98;76.52;99285.00;5050602;28;20646;-60
2023/10/30 03:48:46;;;;;;;6.07;4.07;;;;;;;11.96;76.64;99289.38;5049468;28;20206;-60
2023/10/30 03:51:14;;;;;;;8.17;3.90;;;;;;;11.96;76.81;99278.19;5054177;28;20217;-62
2023/10/30 03:53:43;;;;;;;9.40;4.10;;;;;;;11.96;76.81;99283.34;5052317;28;20289;-61
2023/10/30 03:56:11;;;;;;;6.93;4.07;;;;;;;11.92;77.00;99280.03;5049093;28;20240;-60
2023/10/30 03:58:39;;;;;;;5.70;3.80;;;;;;;11.92;77.48;99277.44;5053278;28;20614;-60
2023/10/30 04:01:07;;;;;;;7.20;4.20;;;;;;;11.91;77.09;99288.66;5051704;28;20198;-61
2023/10/30 04:03:36;;;;;;;5.57;4.13;;;;;;;11.87;76.74;99296.53;5052309;28;20260;-62
2023/10/30 04:06:05;;;;;;;5.77;4.10;;;;;;;11.80;77.23;99298.41;5054423;28;20244;-62
2023/10/30 04:08:33;;;;;;;5.73;3.70;;;;;;;11.73;77.38;99294.31;5039106;28;20253;-64
2023/10/30 04:11:10;;;;;;;5.80;3.70;;;;;;;11.66;77.65;99280.75;5053226;28;20605;-64
2023/10/30 04:13:38;;;;;;;12.10;4.13;;;;;;;11.65;78.16;99288.53;5045052;28;20320;-65
2023/10/30 04:16:07;;;;;;;9.00;4.00;;;;;;;11.55;78.18;99275.88;5054427;28;20677;-64
2023/10/30 04:18:35;;;;;;;7.67;4.37;;;;;;;11.63;78.33;99275.66;5050286;28;20225;-61
2023/10/30 04:21:04;;;;;;;8.20;3.90;;;;;;;11.63;78.24;99280.81;5055501;28;20271;-62
2023/10/30 04:23:32;;;;;;;6.53;3.90;;;;;;;11.64;78.55;99279.13;5051191;28;20201;-64
2023/10/30 04:25:59;;;;;;;6.13;3.67;;;;;;;11.61;78.06;99304.09;5048947;28;20206;-62
2023/10/30 04:28:29;;;;;;;7.30;4.03;;;;;;;11.54;78.37;99301.72;5047970;28;20233;-63
2023/10/30 04:31:00;;;;;;;6.07;3.73;;;;;;;11.46;79.00;99294.22;5045140;28;20241;-62
2023/10/30 04:33:28;;;;;;;9.50;4.50;;;;;;;11.42;79.37;99296.91;5051786;28;20209;-61
2023/10/30 04:35:58;;;;;;;8.73;4.13;;;;;;;11.36;79.44;99308.22;5054471;28;20587;-62
2023/10/30 04:38:28;;;;;;;8.07;4.00;;;;;;;11.36;79.90;99313.38;5048041;28;20209;-61
2023/10/30 04:40:56;;;;;;;8.03;3.67;;;;;;;11.35;80.18;99316.88;5060084;28;20209;-62
2023/10/30 04:43:24;;;;;;;9.07;3.93;;;;;;;11.34;80.37;99317.72;5053306;28;20622;-59
2023/10/30 04:45:53;;;;;;;5.83;3.67;;;;;;;11.32;80.24;99314.34;5047664;28;20728;-62
2023/10/30 04:48:21;;;;;;;5.70;4.00;;;;;;;11.30;79.99;99313.53;5051191;28;20562;-60
2023/10/30 04:50:49;;;;;;;9.40;4.20;;;;;;;11.29;80.18;99306.69;5051231;28;20730;-60
2023/10/30 04:53:17;;;;;;;7.17;3.83;;;;;;;11.29;80.67;99314.44;5051387;28;20213;-62
2023/10/30 04:55:49;;;;;;;4.80;2.90;;;;;;;11.28;81.03;99315.31;5050733;28;20304;-62
2023/10/30 04:58:17;;;;;;;7.00;4.30;;;;;;;11.29;81.11;99317.84;5059699;28;20213;-61
2023/10/30 05:00:47;;;;;;;9.23;4.00;;;;;;;11.28;81.22;99305.84;5050914;28;20210;-62
2023/10/30 05:03:16;;;;;;;5.37;3.83;;;;;;;11.30;81.79;99308.38;5046703;28;20206;-62
2023/10/30 05:05:44;;;;;;;6.93;3.77;;;;;;;11.30;81.72;99309.25;5050969;28;20204;-66
2023/10/30 05:08:12;;;;;;;7.33;3.73;;;;;;;11.31;81.78;99310.94;5055040;28;20273;-61
2023/10/30 05:10:40;;;;;;;8.40;3.90;;;;;;;11.34;81.63;99321.19;5057558;28;20263;-63
2023/10/30 05:13:08;;;;;;;6.27;4.10;;;;;;;11.36;81.44;99344.34;5058130;28;20653;-62
2023/10/30 05:15:36;;;;;;;6.20;3.90;;;;;;;11.38;81.64;99370.94;5055234;28;20272;-62
2023/10/30 05:18:04;;;;;;;8.73;4.30;;;;;;;11.39;81.75;99359.75;5043097;28;20241;-62
2023/10/30 05:20:33;;;;;;;12.00;4.00;;;;;;;11.41;81.89;99370.00;5047414;28;20675;-60
2023/10/30 05:23:01;;;;;;;8.13;4.30;;;;;;;11.40;81.48;99371.75;5047860;28;20220;-61
2023/10/30 05:25:29;;;;;;;10.33;4.33;;;;;;;11.42;81.71;99367.41;5052266;28;20443;-61
2023/10/30 05:28:09;;;;;;;8.47;4.13;;;;;;;11.42;81.58;99359.66;5055141;28;20695;-62
2023/10/30 05:30:37;;;;;;;6.33;3.50;;;;;;;11.42;81.07;99349.34;5044838;28;20610;-65
2023/10/30 05:33:06;;;;;;;6.43;3.83;;;;;;;11.41;81.42;99341.63;5046448;28;20208;-61
2023/10/30 05:35:35;;;;;;;6.07;3.90;;;;;;;11.38;81.73;99337.41;5046848;28;20199;-63
2023/10/30 05:38:05;;;;;;;6.23;4.10;;;;;;;11.38;81.60;99342.59;5052527;28;20213;-61
2023/10/30 05:40:33;;;;;;;12.43;5.50;;;;;;;11.37;81.92;99366.66;5045106;28;20284;-64
2023/10/30 05:43:01;;;;;;;6.00;3.83;;;;;;;11.37;82.05;99369.25;5056414;28;20648;-63
2023/10/30 05:45:29;;;;;;;8.70;4.43;;;;;;;11.37;81.98;99375.22;5054797;28;20197;-67
2023/10/30 05:47:57;;;;;;;7.20;3.83;;;;;;;11.40;81.94;99386.38;5048563;28;20351;-61
2023/10/30 05:50:26;;;;;;;7.77;3.67;;;;;;;11.41;81.86;99378.59;5048985;28;20210;-61
2023/10/30 05:52:55;;;;;;;8.07;4.17;;;;;;;11.43;81.63;99370.81;5050556;28;20267;-63
2023/10/30 05:55:23;;;;;;;8.20;4.10;;;;;;;11.45;82.35;99367.34;5048270;28;20206;-64
2023/10/30 05:57:51;;;;;;;7.47;4.17;;;;;;;11.47;82.11;99383.59;5048372;28;20210;-61
2023/10/30 06:00:19;;;;;;;5.00;4.03;;;;;;;11.54;82.00;99390.28;5050014;28;20202;-61
2023/10/30 06:02:47;;;;;;;10.67;4.33;;;;;;;11.60;81.67;99386.72;5047041;28;20548;-60
2023/10/30 06:05:16;;;;;;;10.30;4.03;;;;;;;11.68;81.40;99391.69;5047841;28;20555;-61
2023/10/30 06:07:44;;;;;;;11.03;3.83;;;;;;;11.74;81.58;99401.81;5048602;28;20205;-62
2023/10/30 06:10:13;;;;;;;6.67;3.97;;;;;;;11.83;81.40;99406.75;5048671;28;20209;-61
2023/10/30 06:12:41;;;;;;;6.83;4.03;;;;;;;11.84;80.52;99411.03;5044826;28;20608;-61
2023/10/30 06:15:10;;;;;;;7.63;3.90;;;;;;;11.94;80.59;99414.25;5049619;28;20201;-63
2023/10/30 06:17:38;;;;;;;5.83;3.33;;;;;;;12.00;80.33;99416.63;5048001;28;20233;-62
2023/10/30 06:20:08;;;;;;;9.43;3.43;;;;;;;12.05;80.29;99412.22;5058131;28;20202;-61
2023/10/30 06:22:36;;;;;;;9.73;3.53;;;;;;;12.07;79.70;99416.41;5054456;28;20663;-62
2023/10/30 06:25:05;;;;;;;10.77;3.80;;;;;;;12.13;79.14;99420.56;5054066;28;20206;-65
2023/10/30 06:27:35;;;;;;;6.07;3.63;;;;;;;12.16;79.12;99430.84;5051389;28;20213;-65
2023/10/30 06:30:04;;;;;;;7.77;3.67;;;;;;;12.19;79.12;99429.91;5052316;28;20217;-63
2023/10/30 06:32:32;;;;;;;15.93;4.00;;;;;;;12.23;79.47;99442.69;5045696;28;20201;-63
2023/10/30 06:35:01;;;;;;;14.17;4.07;;;;;;;12.30;79.11;99448.53;5049158;28;20301;-62
2023/10/30 06:37:28;;;;;;;7.53;3.43;;;;;;;12.38;78.61;99441.41;5053495;28;20214;-63
2023/10/30 06:39:58;;;;;;;8.30;3.70;;;;;;;12.45;78.03;99445.50;5052906;28;20213;-63
2023/10/30 06:42:26;;;;;;;4.90;3.40;;;;;;;12.51;78.22;99444.47;5054176;28;20288;-64
2023/10/30 06:44:55;;;;;;;9.47;3.73;;;;;;;12.54;78.04;99440.06;5047113;28;20535;-62
2023/10/30 06:47:23;;;;;;;8.90;3.83;;;;;;;12.58;77.43;99441.66;5049311;28;20230;-63
2023/10/30 06:49:51;;;;;;;8.83;3.60;;;;;;;12.60;77.66;99433.03;5048281;28;20213;-63
2023/10/30 06:52:19;;;;;;;7.13;3.33;;;;;;;12.62;77.79;99431.22;5048248;28;20202;-61
2023/10/30 06:54:47;;;;;;;9.30;3.57;;;;;;;12.68;77.55;99431.06;5051743;28;20688;-63
2023/10/30 06:57:15;;;;;;;5.80;3.60;;;;;;;12.74;77.23;99428.28;5061740;28;20217;-63
2023/10/30 06:59:43;;;;;;;9.13;4.10;;;;;;;12.81;77.16;99432.38;5052734;28;20628;-62
2023/10/30 07:02:13;;;;;;;6.73;3.50;;;;;;;12.91;77.24;99438.94;5053570;28;20217;-67
2023/10/30 07:04:41;;;;;;;11.27;4.17;;;;;;;12.97;76.04;99443.94;5052286;28;20759;-63
2023/10/30 07:07:09;;;;;;;14.70;3.80;;;;;;;13.00;76.28;99446.44;5045033;28;20874;-62
2023/10/30 07:09:37;;;;;;;5.13;3.27;;;;;;;13.03;75.88;99451.53;5044835;28;20209;-62
2023/10/30 07:12:05;;;;;;;7.53;3.07;;;;;;;13.07;75.50;99452.28;5054524;28;20201;-63
2023/10/30 07:14:34;;;;;;;5.57;3.50;;;;;;;13.07;75.52;99447.09;5050424;28;20214;-62
2023/10/30 07:17:02;;;;;;;5.90;3.07;;;;;;;13.09;75.76;99453.06;5056997;28;20664;-62
2023/10/30 07:19:35;;;;;;;7.60;3.63;;;;;;;13.11;75.47;99450.41;5051400;28;20221;-62
2023/10/30 07:22:04;;;;;;;5.83;3.10;;;;;;;13.15;75.49;99459.78;5050983;28;20208;-62
2023/10/30 07:24:32;;;;;;;3.30;3.00;;;;;;;13.16;75.55;99459.72;5052916;28;20204;-62
2023/10/30 07:27:00;;;;;;;7.73;3.20;;;;;;;13.21;75.16;99455.25;5046929;28;20199;-62
2023/10/30 07:29:28;;;;;;;6.77;3.43;;;;;;;13.25;74.80;99462.03;5049264;28;20202;-62
2023/10/30 07:31:56;;;;;;;5.30;2.50;;;;;;;13.34;74.69;99465.25;5050625;28;20575;-61
2023/10/30 07:34:24;;;;;;;4.60;2.67;;;;;;;13.42;74.54;99465.84;5054164;28;20257;-62
2023/10/30 07:36:53;;;;;;;9.30;3.10;;;;;;;13.48;74.23;99474.25;5054325;28;20308;-63
2023/10/30 07:39:21;;;;;;;4.97;3.33;;;;;;;13.61;73.61;99472.09;5050319;28;20206;-63
2023/10/30 07:41:49;;;;;;;5.40;2.97;;;;;;;13.70;72.84;99473.56;5053631;28;20293;-63
2023/10/30 07:44:17;;;;;;;5.77;2.90;;;;;;;13.83;72.99;99485.19;5044790;28;20202;-64
2023/10/30 07:46:45;;;;;;;6.07;2.70;;;;;;;13.88;71.93;99488.47;5049254;28;20755;-67
2023/10/30 07:49:13;;;;;;;5.87;2.40;;;;;;;13.97;71.84;99497.66;5051740;28;20310;-63
2023/10/30 07:51:41;;;;;;;3.73;2.50;;;;;;;13.99;71.67;99488.94;5057460;28;20662;-61
2023/10/30 07:54:10;;;;;;;6.03;2.13;;;;;;;13.98;70.76;99474.28;5056229;28;20296;-61
2023/10/30 07:56:39;;;;;;;3.20;2.30;;;;;;;13.98;71.11;99471.69;5052331;28;20569;-61
2023/10/30 07:59:07;;;;;;;3.10;1.97;;;;;;;13.97;71.07;99474.34;5050483;28;20202;-62
2023/10/30 08:01:37;;;;;;;4.43;2.10;;;;;;;13.95;70.63;99474.38;5057917;28;20201;-62
2023/10/30 08:04:06;;;;;;;5.50;2.33;;;;;;;13.97;70.83;99477.78;5044696;28;20334;-63
2023/10/30 08:06:34;;;;;;;3.33;2.03;;;;;;;13.97;70.72;99476.94;5046945;28;20206;-60
2023/10/30 08:09:03;;;;;;;3.93;2.17;;;;;;;13.99;70.56;99476.00;5045564;28;20249;-62
2023/10/30 08:11:33;;;;;;;3.90;2.23;;;;;;;14.04;70.29;99493.13;5053858;28;20210;-64
2023/10/30 08:14:01;;;;;;;3.33;1.90;;;;;;;14.10;70.29;99483.41;5054133;28;20228;-62
2023/10/30 08:16:29;;;;;;;2.27;1.90;;;;;;;14.17;69.85;99481.41;5051267;28;20574;-64
2023/10/30 08:18:57;;;;;;;2.73;1.80;;;;;;;14.23;69.55;99473.44;5052121;28;20271;-62
2023/10/30 08:21:25;;;;;;;2.00;1.67;;;;;;;14.29;68.88;99478.41;5049094;28;20622;-63
2023/10/30 08:23:53;;;;;;;5.00;2.27;;;;;;;14.34;68.50;99466.13;5048684;28;20209;-61
2023/10/30 08:26:21;;;;;;;2.73;1.87;;;;;;;14.39;68.37;99471.97;5049579;28;20229;-64
2023/10/30 08:28:50;;;;;;;4.40;1.80;;;;;;;14.46;68.49;99482.97;5052418;28;20572;-63
2023/10/30 08:31:18;;;;;;;3.00;2.00;;;;;;;14.48;68.22;99487.22;5051722;28;20256;-62
2023/10/30 08:33:46;;;;;;;4.37;1.60;;;;;;;14.52;67.99;99484.53;5052429;28;20728;-62
2023/10/30 08:36:21;;;;;;;4.57;1.57;;;;;;;14.57;67.89;99492.97;5052723;28;20210;-64
2023/10/30 08:38:49;;;;;;;2.53;1.73;;;;;;;14.62;67.53;99496.28;5043363;28;20214;-60
2023/10/30 08:41:20;;;;;;;3.67;1.83;;;;;;;14.65;67.71;99499.56;5053900;28;20661;-61
2023/10/30 08:43:50;;;;;;;2.70;1.77;;;;;;;14.75;67.10;99507.84;5050524;28;20209;-63
2023/10/30 08:46:20;;;;;;;5.93;1.77;;;;;;;14.84;66.70;99504.94;5052609;28;20255;-62
2023/10/30 08:48:48;;;;;;;5.15;1.95;;;;;;;14.92;66.38;99508.09;5052360;28;20205;-62
2023/10/30 08:51:16;;;;;;;4.53;1.70;;;;;;;14.97;65.74;99503.56;5052036;28;20653;-65
2023/10/30 08:53:44;;;;;;;4.13;2.00;;;;;;;15.04;65.85;99503.31;5054562;28;20210;-61
2023/10/30 08:56:12;;;;;;;5.60;2.45;;;;;;;15.10;65.17;99523.84;5053337;28;20623;-64
2023/10/30 08:58:40;;;;;;;2.33;1.60;;;;;;;15.13;65.23;99513.34;5053109;28;20668;-60
2023/10/30 09:01:09;;;;;;;7.30;2.10;;;;;;;15.18;65.26;99506.22;5055156;28;20668;-60
2023/10/30 09:03:41;;;;;;;3.55;1.88;;;;;;;15.27;64.84;99505.00;5049977;28;20718;-62
2023/10/30 09:06:09;;;;;;;4.88;2.20;;;;;;;15.36;64.69;99517.66;5050219;28;20463;-66
2023/10/30 09:08:37;;;;;;;3.05;1.75;;;;;;;15.44;64.28;99526.81;5054486;28;20300;-64
2023/10/30 09:11:08;;;;;;;4.72;1.75;;;;;;;15.48;63.93;99524.94;5053613;28;20247;-63
2023/10/30 09:13:36;;;;;;;2.10;1.67;;;;;;;15.55;64.28;99525.53;5057450;28;20209;-59
2023/10/30 09:16:05;;;;;;;3.53;1.97;;;;;;;15.63;63.30;99515.69;5058778;28;20707;-65
2023/10/30 09:18:36;;;;;;;2.07;1.53;;;;;;;15.69;63.48;99516.31;5052233;28;20240;-70
2023/10/30 09:21:04;;;;;;;3.07;1.53;;;;;;;15.79;62.78;99527.16;5051918;28;20283;-70
2023/10/30 09:23:34;;;;;;;4.70;2.10;;;;;;;15.77;62.26;99531.59;5058268;28;20201;-68
2023/10/30 09:26:03;;;;;;;5.80;1.90;;;;;;;15.77;62.67;99536.78;5062105;28;20202;-68
2023/10/30 09:28:31;;;;;;;2.43;1.50;;;;;;;15.83;62.42;99546.06;5050976;28;20216;-67
2023/10/30 09:30:59;;;;;;;8.43;2.37;;;;;;;15.83;62.49;99552.13;5054054;28;20202;-71
2023/10/30 09:33:27;;;;;;;2.67;1.90;;;;;;;15.86;62.54;99553.72;5054325;28;20203;-67
2023/10/30 09:35:56;;;;;;;3.90;2.40;;;;;;;15.90;63.16;99555.28;5055232;28;20202;-65
2023/10/30 09:38:25;;;;;;;5.73;1.87;;;;;;;15.86;62.89;99553.72;5046784;28;20257;-70
2023/10/30 09:41:00;;;;;;;3.93;2.17;;;;;;;15.81;63.21;99559.13;5048953;28;20201;-67
2023/10/30 09:43:29;;;;;;;4.33;2.43;;;;;;;15.73;63.62;99563.78;5061100;28;20544;-65
2023/10/30 09:45:59;;;;;;;4.20;2.00;;;;;;;15.64;64.08;99564.94;5045038;28;20213;-69
2023/10/30 09:48:29;;;;;;;5.27;2.40;;;;;;;15.63;64.57;99575.41;5048297;28;20202;-64
2023/10/30 09:51:00;;;;;;;3.53;2.10;;;;;;;15.61;64.39;99579.81;5045974;28;20682;-62
2023/10/30 09:53:29;;;;;;;4.07;2.23;;;;;;;15.62;64.48;99584.13;5049786;28;20205;-62
2023/10/30 09:55:57;;;;;;;4.23;1.90;;;;;;;15.69;64.55;99572.63;5046975;28;20205;-65
2023/10/30 09:58:25;;;;;;;2.27;1.77;;;;;;;15.72;62.81;99567.28;5055752;28;20221;-69
2023/10/30 10:00:53;;;;;;;4.43;2.07;;;;;;;15.69;63.04;99572.63;5052045;28;20300;-66
2023/10/30 10:03:21;;;;;;;3.00;1.90;;;;;;;15.72;62.84;99563.84;5048429;28;20210;-62
2023/10/30 10:06:01;;;;;;;3.67;2.10;;;;;;;15.73;62.99;99573.34;5058401;28;20205;-65
2023/10/30 10:08:29;;;;;;;2.93;2.00;;;;;;;15.74;62.86;99568.06;5051423;28;20218;-67
2023/10/30 10:10:59;;;;;;;4.03;1.83;;;;;;;15.74;62.68;99570.66;5060253;28;20198;-63
2023/10/30 10:13:28;;;;;;;2.27;1.50;;;;;;;15.72;63.02;99569.88;5049630;28;20591;-68
2023/10/30 10:15:57;;;;;;;2.17;1.60;;;;;;;15.75;62.99;99584.50;5061646;28;20197;-65
2023/10/30 10:18:26;;;;;;;3.72;1.50;;;;;;;15.72;62.78;99587.22;5063124;28;20573;-62
2023/10/30 10:20:56;;;;;;;2.53;1.73;;;;;;;15.70;63.17;99595.91;5066265;28;20244;-65
2023/10/30 10:23:26;;;;;;;3.10;1.60;;;;;;;15.72;63.39;99597.59;5059704;28;20645;-64
2023/10/30 10:25:56;;;;;;;2.83;1.88;;;;;;;15.69;63.19;99593.41;5063596;28;20201;-66
2023/10/30 10:28:24;;;;;;;2.40;1.73;;;;;;;15.74;63.31;99594.03;5054733;28;20197;-67
2023/10/30 10:30:53;;;;;;;2.97;1.80;;;;;;;15.79;63.88;99602.50;5051955;28;20202;-67
2023/10/30 10:33:22;;;;;;;4.80;1.85;;;;;;;15.81;63.40;99603.28;5050394;28;20206;-66
2023/10/30 10:35:54;;;;;;;4.50;2.03;;;;;;;15.82;63.42;99594.56;5047468;28;20637;-66
2023/10/30 10:38:22;;;;;;;4.05;1.88;;;;;;;15.85;63.73;99586.66;5051542;28;20206;-67
2023/10/30 10:40:52;;;;;;;3.97;1.92;;;;;;;15.89;63.75;99577.84;5052475;28;20240;-66
2023/10/30 10:43:21;;;;;;;3.70;1.70;;;;;;;15.96;62.76;99580.19;5061060;28;20209;-67
2023/10/30 10:45:50;;;;;;;4.00;2.10;;;;;;;15.92;62.91;99571.69;5052902;28;20279;-63
2023/10/30 10:48:19;;;;;;;2.70;1.90;;;;;;;15.90;62.77;99568.28;5049864;28;20723;-65
2023/10/30 10:50:48;;;;;;;4.23;1.50;;;;;;;15.90;62.69;99558.72;5053255;28;20205;-61
2023/10/30 10:53:19;;;;;;;4.40;1.37;;;;;;;15.88;62.31;99555.38;5050114;28;20198;-66
2023/10/30 10:55:52;;;;;;;2.87;1.80;;;;;;;15.91;62.47;99562.19;5052849;28;20209;-67
2023/10/30 10:58:22;;;;;;;3.97;1.80;;;;;;;15.90;62.51;99552.69;5057565;28;20646;-70
2023/10/30 11:00:53;;;;;;;5.22;1.60;;;;;;;15.89;62.31;99551.84;5063314;28;20201;-71
2023/10/30 11:03:22;;;;;;;4.87;2.10;;;;;;;15.88;62.70;99555.38;5059787;28;20201;-68
2023/10/30 11:05:51;;;;;;;4.07;1.50;;;;;;;15.83;62.49;99557.31;5064139;28;20765;-68
2023/10/30 11:08:40;;;;;;;4.10;1.70;;;;;;;15.86;63.23;99567.56;5056289;28;20236;-68
2023/10/30 11:11:15;;;;;;;2.57;1.73;;;;;;;15.90;62.48;99563.94;5065168;28;20209;-67
2023/10/30 11:13:56;;;;;;;5.77;1.80;;;;;;;15.90;62.46;99569.13;5058239;28;20212;-70
2023/10/30 11:16:27;;;;;;;3.03;1.67;;;;;;;15.90;62.41;99558.72;5063800;28;20244;-68
2023/10/30 11:18:58;;;;;;;2.93;1.30;;;;;;;15.89;62.47;99556.22;5063519;28;20228;-68
2023/10/30 11:21:28;;;;;;;3.15;1.55;;;;;;;15.93;62.53;99566.41;5052795;28;20209;-63
2023/10/30 11:23:58;;;;;;;2.37;1.70;;;;;;;15.93;62.83;99569.00;5059033;28;20220;-69
2023/10/30 11:26:43;;;;;;;7.18;1.88;;;;;;;15.92;62.50;99569.91;5064510;28;20650;-67
2023/10/30 11:29:16;;;;;;;4.28;1.90;;;;;;;15.89;62.47;99582.19;5057127;28;20205;-62
2023/10/30 11:32:03;;;;;;;3.45;1.60;;;;;;;15.88;62.58;99580.50;5051345;28;20209;-67
2023/10/30 11:34:33;;;;;;;4.90;1.80;;;;;;;15.88;62.63;99578.75;5053932;28;20225;-62
2023/10/30 11:37:08;;;;;;;6.90;1.90;;;;;;;15.93;62.44;99583.75;5051996;28;20555;-63
2023/10/30 11:39:38;;;;;;;3.97;1.70;;;;;;;16.01;62.69;99578.25;5054728;28;20232;-59
2023/10/30 11:42:32;;;;;;;2.43;1.63;;;;;;;16.21;62.49;99577.44;5055681;28;20206;-58